Etusivu
METAR-TAF:

METAR-TAF

Lentoasemat :

Havanna, Kuuba

Leveyspiiri: 22-59N, Pituuspiiri: 082-24W, korkeus merenpinnasta: 59 m

Tämänhetkinen sää

Tämä raportti tehtiin 2 tuntia ja 59 minuuttia sitten, kello 09.55 UTC
Tuuli 2 kn kaakosta
Lämpötila 23°C
Kosteus 89%
Ilmanpaine 1011 hPa
Näkyvyys: 9000 m
Muutamia pilviä 2000 ft:n korkeudessa

METAR: MUHA 270955Z 13002KT 9000 FEW020 23/21 Q1011

Aika: 08:54 (12:54 UTC)

Sääennuste

Tämä raportti tehtiin 7 tuntia ja 54 minuuttia sitten, kello 05.00 UTC
Ennuste voimassa 27. päivästä klo 06 UTC - 28. päivään klo 06 UTC
Tuuli 3 kn eri suunnista
Näkyvyys: 9000 m
Muutamia pilviä 3000 ft:n korkeudessa
Tulossa
27. päivästä klo 13 UTC - 27. päivään klo 15 UTC
Tuuli 10 kn etelästä
Tulossa
28. päivästä klo 01 UTC - 28. päivään klo 03 UTC
Tuuli 2 kn eri suunnista

TAF: MUHA 270500Z 2706/2806 VRB03KT 9000 FEW030 BECMG 2713/2715 17010KT BECMG 2801/2803 VRB02KT

Säähavainnot ja -ennusteet yli 4000 lentoasemalta (METAR- ja TAF-raportit).

Käytössä olevat sääasemat on merkitty karttaan keltaisilla ja punaisilla pisteillä.

Aseta hiiri pisteen päälle nähdäksesi sääaseman nimen.

Klikkaa sitten nähdäksesi säähavainnot ja -ennusteet.

Kartan vaihtaminen: klikkaa mustalla rastilla varustettuja vihreitä pisteitä, niin voit zoomata sisään; viivalla varustettua vihreää pistettä, niin voit zoomata ulos tai vihreitä nuolia, niin pääset viereisille kartoille.


METAR-TAF: